Terminal Aerodrome Forecast
Issued by NWS Dallas/Fort Worth, TX

Home | Current Version | Previous Version | Text Only | Print | Product List | Glossary On
Versions: 1 2 3 4 5 6 7 8 9 10 11 12 13 14 15 16 17 18 19 20 21 22 23 24 25 26 27
000
FTUS44 KFWD 210520
TAFDFW
TAF
KDFW 210520Z 2106/2212 16016KT P6SM BKN015
     FM211500 17015KT P6SM BKN020
     FM211900 17018KT P6SM BKN035 BKN100
     FM220500 20016KT P6SM VCTS BKN035CB
      TEMPO 2206/2209 5SM TSRA BKN025CB
     FM220900 34017KT P6SM VCSH BKN060 BKN150=

USA.gov is the U.S. government's official web portal to all federal, state and local government web resources and services.